Terminal Aerodrome Forecast
Issued by NWS

Home | Current Version | Previous Version | Text Only | Print | Product List | Glossary Off
Versions: 1 2 3 4 5 6 7 8 9 10 11 12 13 14 15 16 17

000
FTUS43 KABR 210500
TAFATY
TAF
KATY 210520Z 2106/2206 11006KT P6SM BKN090
      TEMPO 2106/2108 36015G30KT
     FM210800 35011KT P6SM SCT100
     FM211500 34019G28KT P6SM SCT040 SCT200
     FM220000 35013KT P6SM SKC=

USA.gov is the U.S. government's official web portal to all federal, state and local government web resources and services.